Time;durP1;ratioP1;P1;durP2;ratioP2;P2;SDS_P1;SDS_P2;PMS_P1;PMS_P2;Temp;Humidity;BMP_temperature;BMP_pressure;BME280_temperature;BME280_humidity;BME280_pressure;Samples;Min_cycle;Max_cycle;Signal;HPM_P1;HPM_P2
2022/06/24 00:07:50;;;;;;;4.47;1.13;;;;;;;27.04;49.08;100455.47;4973360;28;20082;-67
2022/06/24 00:10:17;;;;;;;7.40;1.10;;;;;;;27.02;49.39;100452.16;4957638;28;20053;-67
2022/06/24 00:12:47;;;;;;;5.55;1.20;;;;;;;27.02;49.56;100445.81;4973698;28;20030;-68
2022/06/24 00:15:12;;;;;;;2.67;1.27;;;;;;;27.01;49.64;100455.97;4979372;28;20030;-66
2022/06/24 00:17:38;;;;;;;4.15;1.40;;;;;;;27.03;49.48;100448.28;4976776;28;20499;-66
2022/06/24 00:20:05;;;;;;;5.35;1.70;;;;;;;27.07;50.23;100454.97;4992999;28;20388;-66
2022/06/24 00:22:39;;;;;;;2.47;1.60;;;;;;;27.10;50.30;100453.66;4992936;28;20121;-66
2022/06/24 00:25:13;;;;;;;7.72;1.88;;;;;;;27.16;50.34;100463.69;4992890;28;20014;-65
2022/06/24 00:27:40;;;;;;;2.67;1.42;;;;;;;27.21;50.32;100471.19;4992953;28;20423;-66
2022/06/24 00:30:09;;;;;;;3.38;2.17;;;;;;;27.21;50.36;100460.16;4975438;28;20050;-66
2022/06/24 00:32:34;;;;;;;7.43;2.13;;;;;;;27.25;50.63;100461.38;4974689;28;20026;-66
2022/06/24 00:35:05;;;;;;;5.57;2.10;;;;;;;27.25;51.09;100445.66;4973484;28;20443;-67
2022/06/24 00:37:32;;;;;;;5.40;2.30;;;;;;;27.29;50.83;100448.75;4989593;28;20039;-66
2022/06/24 00:40:10;;;;;;;4.15;2.40;;;;;;;27.34;50.35;100462.59;4957235;28;20026;-66
2022/06/24 00:42:45;;;;;;;2.13;1.45;;;;;;;27.33;51.53;100470.00;4974541;28;20031;-66
2022/06/24 00:45:15;;;;;;;4.00;2.05;;;;;;;27.39;51.07;100470.94;4973129;28;20019;-66
2022/06/24 00:47:41;;;;;;;6.38;2.40;;;;;;;27.42;51.03;100473.22;4974393;28;20419;-66
2022/06/24 00:50:17;;;;;;;2.40;1.65;;;;;;;27.45;51.34;100464.47;4957082;28;20026;-66
2022/06/24 00:52:43;;;;;;;2.10;1.90;;;;;;;27.45;51.36;100470.00;4974362;28;20049;-66
2022/06/24 00:55:08;;;;;;;3.28;1.85;;;;;;;27.48;50.75;100473.09;4957071;28;20490;-66
2022/06/24 00:57:35;;;;;;;4.05;2.25;;;;;;;27.52;50.94;100470.69;4974425;28;20026;-66
2022/06/24 01:00:02;;;;;;;2.17;1.98;;;;;;;27.55;51.13;100470.19;4973206;28;20029;-66
2022/06/24 01:02:28;;;;;;;2.97;2.50;;;;;;;27.56;51.08;100472.69;4958059;28;20022;-66
2022/06/24 01:05:07;;;;;;;3.80;1.98;;;;;;;27.56;51.01;100474.59;4977051;28;20023;-66
2022/06/24 01:07:37;;;;;;;2.70;2.22;;;;;;;27.57;50.73;100492.78;4959516;28;20051;-66
2022/06/24 01:10:02;;;;;;;3.40;2.55;;;;;;;27.56;50.48;100489.19;4976856;28;20027;-67
2022/06/24 01:12:30;;;;;;;6.25;3.03;;;;;;;27.56;50.87;100497.44;4975613;28;20030;-66
2022/06/24 01:14:56;;;;;;;3.17;2.45;;;;;;;27.59;50.85;100501.63;4975674;28;20026;-66
2022/06/24 01:17:21;;;;;;;3.17;2.50;;;;;;;27.57;50.75;100496.38;4975319;28;20034;-66
2022/06/24 01:19:46;;;;;;;4.95;2.60;;;;;;;27.57;50.46;100481.78;4976762;28;20023;-66
2022/06/24 01:22:19;;;;;;;2.90;2.20;;;;;;;27.58;50.80;100475.19;4975480;28;20027;-66
2022/06/24 01:24:44;;;;;;;13.18;3.83;;;;;;;27.60;51.37;100471.09;4975440;28;20027;-66
2022/06/24 01:27:10;;;;;;;5.03;2.22;;;;;;;27.62;50.71;100474.44;4975427;28;20490;-66
2022/06/24 01:29:35;;;;;;;4.53;3.53;;;;;;;27.65;50.63;100475.84;4976643;28;20078;-66
2022/06/24 01:32:00;;;;;;;4.45;2.75;;;;;;;27.66;50.62;100475.63;4959189;28;20025;-67
2022/06/24 01:34:26;;;;;;;5.13;2.03;;;;;;;27.71;50.72;100483.13;4976437;28;20058;-66
2022/06/24 01:36:52;;;;;;;4.32;2.92;;;;;;;27.78;50.00;100491.22;4975213;28;20027;-66
2022/06/24 01:39:18;;;;;;;4.50;2.70;;;;;;;27.82;49.95;100490.47;4976597;28;20123;-66
2022/06/24 01:41:44;;;;;;;6.47;2.88;;;;;;;27.89;49.94;100480.09;4976374;28;20029;-67
2022/06/24 01:44:09;;;;;;;8.02;2.95;;;;;;;27.94;49.98;100480.19;4975103;28;20027;-67
2022/06/24 01:46:34;;;;;;;3.38;2.83;;;;;;;27.95;50.18;100479.09;4975267;28;20443;-66
2022/06/24 01:49:00;;;;;;;6.22;2.63;;;;;;;28.01;50.49;100485.53;4974964;28;20030;-66
2022/06/24 01:51:26;;;;;;;3.40;2.63;;;;;;;28.01;50.17;100469.84;4975201;28;20027;-67
2022/06/24 01:53:52;;;;;;;3.92;3.05;;;;;;;28.07;49.78;100477.13;4975075;28;20026;-67
2022/06/24 01:56:18;;;;;;;4.22;2.60;;;;;;;28.10;50.29;100478.53;4976147;28;20022;-67
2022/06/24 01:58:44;;;;;;;4.65;3.05;;;;;;;28.09;50.38;100474.94;4975000;28;20030;-67
2022/06/24 02:01:09;;;;;;;3.53;2.78;;;;;;;28.10;49.72;100473.88;4974967;28;20038;-67
2022/06/24 02:03:34;;;;;;;3.30;2.85;;;;;;;28.12;49.63;100463.41;4974755;28;20022;-66
2022/06/24 02:06:05;;;;;;;6.93;2.88;;;;;;;28.09;49.23;100455.66;4937065;28;1108140;-67
2022/06/24 02:08:31;;;;;;;4.95;2.55;;;;;;;28.10;49.65;100451.00;4959901;28;20488;-66
2022/06/24 02:13:41;;;;;;;4.80;3.03;;;;;;;28.06;49.58;100453.41;4975963;28;20030;-67
2022/06/24 02:16:07;;;;;;;7.03;2.95;;;;;;;28.06;49.20;100458.91;4959942;28;20464;-67
2022/06/24 02:18:33;;;;;;;6.22;2.72;;;;;;;28.04;50.22;100463.84;4976835;28;20030;-66
2022/06/24 02:20:59;;;;;;;5.30;3.00;;;;;;;28.03;49.69;100458.63;4959475;28;20476;-67
2022/06/24 02:23:25;;;;;;;6.57;3.60;;;;;;;27.99;49.60;100452.72;4975665;28;20109;-67
2022/06/24 02:25:51;;;;;;;3.58;2.72;;;;;;;28.00;49.46;100448.88;4975668;28;20403;-67
2022/06/24 02:28:17;;;;;;;7.60;3.40;;;;;;;28.00;49.53;100457.13;4959508;28;20165;-67
2022/06/24 02:30:44;;;;;;;4.20;3.03;;;;;;;27.99;49.47;100452.72;4991781;28;20026;-67
2022/06/24 02:33:09;;;;;;;8.25;2.88;;;;;;;27.99;50.00;100452.72;4975423;28;20050;-67
2022/06/24 02:35:36;;;;;;;6.15;2.88;;;;;;;27.97;49.96;100448.56;4976641;28;20384;-67
2022/06/24 02:38:01;;;;;;;4.32;3.50;;;;;;;27.95;49.64;100439.69;4975562;28;20027;-66
2022/06/24 02:40:45;;;;;;;3.30;3.00;;;;;;;27.94;50.21;100440.81;4975491;28;20041;-67
2022/06/24 02:43:18;;;;;;;7.10;3.38;;;;;;;27.93;49.56;100434.47;4976540;28;20090;-66
2022/06/24 02:45:45;;;;;;;4.22;2.70;;;;;;;27.90;50.07;100428.63;4975145;28;20038;-65
2022/06/24 02:48:11;;;;;;;3.50;2.63;;;;;;;27.89;50.07;100427.78;4959141;28;20026;-66
2022/06/24 02:50:41;;;;;;;4.93;3.17;;;;;;;27.90;50.21;100423.09;4975244;28;20090;-66
2022/06/24 02:53:06;;;;;;;4.28;3.00;;;;;;;27.89;49.63;100419.50;4959151;28;20527;-66
2022/06/24 02:55:32;;;;;;;6.05;3.25;;;;;;;27.88;50.35;100412.38;4976345;28;20110;-66
2022/06/24 02:57:57;;;;;;;3.83;3.08;;;;;;;27.84;50.18;100407.59;4975050;28;20022;-66
2022/06/24 03:00:22;;;;;;;4.30;2.83;;;;;;;27.85;50.24;100409.28;4975013;28;20026;-66
2022/06/24 03:02:48;;;;;;;4.18;3.05;;;;;;;27.86;50.32;100414.53;4975103;28;20026;-66
2022/06/24 03:05:13;;;;;;;5.88;3.42;;;;;;;27.81;50.20;100399.84;4975865;28;20054;-66
2022/06/24 03:07:38;;;;;;;4.47;3.20;;;;;;;27.81;49.58;100400.66;4974854;28;20034;-67
2022/06/24 03:10:04;;;;;;;6.43;2.83;;;;;;;27.82;50.61;100396.84;4974803;28;20441;-66
2022/06/24 03:12:30;;;;;;;4.32;2.60;;;;;;;27.83;50.35;100397.69;4974784;28;20385;-66
2022/06/24 03:14:55;;;;;;;11.10;3.10;;;;;;;27.83;50.35;100398.53;4958946;28;20465;-67
2022/06/24 03:17:20;;;;;;;4.15;3.00;;;;;;;27.85;49.93;100396.34;4975988;28;20392;-66
2022/06/24 03:19:46;;;;;;;4.45;3.30;;;;;;;27.87;50.38;100385.91;4974697;28;20054;-65
2022/06/24 03:22:11;;;;;;;5.70;3.00;;;;;;;27.85;50.42;100368.81;4974494;28;20057;-66
2022/06/24 03:24:36;;;;;;;5.43;3.22;;;;;;;27.86;50.13;100370.47;4957888;28;20055;-66
2022/06/24 03:27:02;;;;;;;9.95;2.90;;;;;;;27.87;50.35;100371.28;4974499;28;20089;-67
2022/06/24 03:29:27;;;;;;;5.10;2.78;;;;;;;27.84;50.05;100361.63;4974399;28;20030;-66
2022/06/24 03:31:52;;;;;;;3.75;2.80;;;;;;;27.83;50.23;100354.47;4958031;28;20456;-66
2022/06/24 03:34:18;;;;;;;4.32;2.33;;;;;;;27.80;50.15;100359.63;4974349;28;20039;-66
2022/06/24 03:36:43;;;;;;;4.15;2.65;;;;;;;27.81;50.44;100356.63;4974251;28;20033;-66
2022/06/24 03:39:09;;;;;;;7.57;4.25;;;;;;;27.83;50.17;100348.13;4958038;28;20029;-66
2022/06/24 03:41:34;;;;;;;5.47;2.72;;;;;;;27.83;50.05;100345.38;4975266;28;20399;-66
2022/06/24 03:44:00;;;;;;;7.20;2.58;;;;;;;27.83;50.00;100337.09;4974186;28;20113;-66
2022/06/24 03:46:25;;;;;;;5.32;2.58;;;;;;;27.83;50.47;100332.44;4957825;28;20507;-66
2022/06/24 03:48:51;;;;;;;4.55;2.20;;;;;;;27.84;49.89;100338.75;4974103;28;20110;-66
2022/06/24 03:51:16;;;;;;;6.63;3.03;;;;;;;27.83;50.13;100345.38;4975258;28;20030;-67
2022/06/24 03:53:41;;;;;;;4.75;2.70;;;;;;;27.84;50.85;100350.59;4973967;28;20033;-67
2022/06/24 03:56:10;;;;;;;5.45;2.92;;;;;;;27.87;50.40;100355.59;4975321;28;20074;-67
2022/06/24 03:58:35;;;;;;;4.32;2.72;;;;;;;27.89;50.82;100358.94;4957887;28;20042;-66
2022/06/24 04:01:01;;;;;;;4.97;3.17;;;;;;;27.89;50.46;100364.44;4973726;28;20399;-66
2022/06/24 04:03:27;;;;;;;9.18;3.30;;;;;;;27.90;50.45;100360.63;4957798;28;20023;-66
2022/06/24 04:05:52;;;;;;;5.80;2.90;;;;;;;27.88;50.25;100357.28;4989903;28;20113;-65
2022/06/24 04:08:17;;;;;;;5.53;3.22;;;;;;;27.90;50.27;100368.03;4973767;28;20031;-67
2022/06/24 04:10:43;;;;;;;4.97;2.83;;;;;;;27.91;50.40;100372.47;4973850;28;20102;-67
2022/06/24 04:13:08;;;;;;;3.17;2.80;;;;;;;27.91;50.05;100365.03;4974129;28;20031;-67
2022/06/24 04:15:33;;;;;;;7.63;3.38;;;;;;;27.88;50.27;100364.72;4973631;28;20019;-66
2022/06/24 04:17:59;;;;;;;7.70;3.10;;;;;;;27.83;50.06;100365.47;4974974;28;20458;-67
2022/06/24 04:20:24;;;;;;;9.88;3.70;;;;;;;27.84;50.29;100366.28;4973675;28;20023;-66
2022/06/24 04:22:50;;;;;;;6.13;3.60;;;;;;;27.84;50.43;100385.56;4957431;28;20396;-66
2022/06/24 04:25:16;;;;;;;7.07;3.20;;;;;;;27.80;50.30;100371.50;4974642;28;20027;-66
2022/06/24 04:27:41;;;;;;;8.50;4.55;;;;;;;27.79;50.33;100377.22;4973593;28;20026;-71
2022/06/24 04:30:09;;;;;;;6.13;3.15;;;;;;;27.77;50.19;100383.00;4973432;28;20038;-66
2022/06/24 04:32:34;;;;;;;10.10;4.68;;;;;;;27.74;50.84;100400.03;4973338;28;20026;-66
2022/06/24 04:34:59;;;;;;;9.07;4.03;;;;;;;27.73;50.77;100404.69;4973488;28;20111;-67
2022/06/24 04:37:25;;;;;;;5.90;4.35;;;;;;;27.72;50.94;100413.22;4973368;28;20046;-66
2022/06/24 04:39:51;;;;;;;6.72;4.05;;;;;;;27.70;51.02;100415.38;4973411;28;20105;-66
2022/06/24 04:42:16;;;;;;;7.25;4.07;;;;;;;27.69;50.44;100430.25;4973397;28;20050;-66
2022/06/24 04:44:41;;;;;;;7.70;4.38;;;;;;;27.64;50.19;100427.38;4974365;28;20034;-67
2022/06/24 04:47:07;;;;;;;7.07;3.92;;;;;;;27.63;50.13;100428.47;4956943;28;20492;-67
2022/06/24 04:49:33;;;;;;;6.45;4.07;;;;;;;27.62;50.71;100435.91;4973265;28;20023;-66
2022/06/24 04:51:58;;;;;;;6.95;4.50;;;;;;;27.60;50.59;100437.25;4957138;28;20033;-66
2022/06/24 04:54:24;;;;;;;10.00;4.57;;;;;;;27.56;50.46;100438.81;4973461;28;20031;-66
2022/06/24 04:56:49;;;;;;;5.65;3.78;;;;;;;27.53;50.89;100437.38;4973348;28;20085;-66
2022/06/24 04:59:15;;;;;;;7.68;4.07;;;;;;;27.50;50.41;100440.63;4973234;28;20023;-66
2022/06/24 05:01:41;;;;;;;5.97;3.90;;;;;;;27.50;50.51;100442.59;4974372;28;20515;-66
2022/06/24 05:04:06;;;;;;;6.70;3.50;;;;;;;27.49;50.35;100438.16;4973034;28;20026;-66
2022/06/24 05:06:31;;;;;;;6.35;4.13;;;;;;;27.50;50.48;100442.59;4974069;28;20042;-67
2022/06/24 05:08:57;;;;;;;8.15;4.15;;;;;;;27.52;50.42;100441.25;4973083;28;20114;-67
2022/06/24 05:11:22;;;;;;;6.60;3.30;;;;;;;27.50;50.54;100435.13;4974608;28;20058;-66
2022/06/24 05:13:47;;;;;;;6.95;4.43;;;;;;;27.51;50.39;100436.81;4977887;28;20033;-66
2022/06/24 05:16:13;;;;;;;6.28;4.07;;;;;;;27.50;50.70;100426.06;4972413;28;20388;-66
2022/06/24 05:18:38;;;;;;;9.82;4.03;;;;;;;27.52;50.22;100421.16;4957306;28;20369;-67
2022/06/24 05:21:03;;;;;;;5.32;3.88;;;;;;;27.53;50.95;100425.53;4974185;28;20508;-65
2022/06/24 05:23:29;;;;;;;7.63;3.95;;;;;;;27.49;50.91;100429.91;4956758;28;20542;-65
2022/06/24 05:25:54;;;;;;;8.75;4.13;;;;;;;27.45;50.80;100431.47;4972880;28;20078;-66
2022/06/24 05:28:20;;;;;;;5.97;3.78;;;;;;;27.46;50.99;100435.91;4974097;28;20082;-65
2022/06/24 05:30:45;;;;;;;9.95;4.35;;;;;;;27.44;50.62;100436.16;4973040;28;20046;-65
2022/06/24 05:33:10;;;;;;;5.07;3.97;;;;;;;27.43;50.43;100439.16;4972765;28;20054;-65
2022/06/24 05:35:36;;;;;;;6.95;4.63;;;;;;;27.43;51.05;100442.72;4974129;28;20416;-67
2022/06/24 05:38:01;;;;;;;5.55;3.67;;;;;;;27.44;51.09;100449.06;4972965;28;20062;-66
2022/06/24 05:40:27;;;;;;;7.88;5.53;;;;;;;27.43;50.57;100441.91;4972760;28;20443;-66
2022/06/24 05:42:52;;;;;;;7.45;4.78;;;;;;;27.43;51.13;100439.16;4972763;28;20058;-66
2022/06/24 05:45:18;;;;;;;7.60;4.47;;;;;;;27.44;50.90;100438.06;4956579;28;20484;-66
2022/06/24 05:47:43;;;;;;;4.60;3.83;;;;;;;27.47;50.90;100448.59;4967679;28;20026;-66
2022/06/24 05:50:09;;;;;;;6.00;3.97;;;;;;;27.48;50.46;100439.22;4975120;28;20043;-66
2022/06/24 05:55:18;;;;;;;6.28;4.28;;;;;;;27.49;50.85;100435.41;4990411;28;20037;-67
2022/06/24 05:57:44;;;;;;;6.35;4.50;;;;;;;27.48;49.93;100428.22;4995739;28;20026;-65
2022/06/24 06:00:09;;;;;;;7.78;3.90;;;;;;;27.48;50.54;100423.56;4979428;28;20038;-66
2022/06/24 06:02:35;;;;;;;7.15;4.35;;;;;;;27.50;50.88;100421.38;4995459;28;20034;-66
2022/06/24 06:05:00;;;;;;;7.10;4.10;;;;;;;27.51;50.83;100422.22;4979054;28;20034;-66
2022/06/24 06:07:26;;;;;;;5.60;3.95;;;;;;;27.53;50.67;100415.38;4995167;28;20054;-67
2022/06/24 06:09:51;;;;;;;6.53;3.67;;;;;;;27.55;50.49;100421.47;4982188;28;20030;-67
2022/06/24 06:12:17;;;;;;;6.70;3.40;;;;;;;27.56;50.74;100420.38;4977092;28;20042;-66
2022/06/24 06:14:42;;;;;;;7.10;4.15;;;;;;;27.59;50.97;100425.38;4977066;28;20015;-65
2022/06/24 06:17:08;;;;;;;6.13;3.50;;;;;;;27.61;50.53;100433.41;4976983;28;20411;-66
2022/06/24 06:19:34;;;;;;;5.95;3.47;;;;;;;27.61;50.38;100447.97;4975771;28;20027;-65
2022/06/24 06:22:02;;;;;;;7.38;3.50;;;;;;;27.58;51.02;100450.44;4975735;28;20061;-66
2022/06/24 06:24:27;;;;;;;6.38;3.38;;;;;;;27.55;50.25;100450.91;4976854;28;20054;-65
2022/06/24 06:26:53;;;;;;;5.88;3.80;;;;;;;27.52;50.66;100446.75;4976805;28;20058;-66
2022/06/24 06:29:18;;;;;;;9.32;4.10;;;;;;;27.46;51.08;100445.00;4975610;28;20023;-66
2022/06/24 06:31:43;;;;;;;4.68;3.53;;;;;;;27.45;51.09;100456.22;4975527;28;20027;-66
2022/06/24 06:34:09;;;;;;;4.38;3.22;;;;;;;27.42;51.19;100446.56;4975589;28;20101;-66
2022/06/24 06:36:34;;;;;;;4.88;3.58;;;;;;;27.42;50.70;100452.06;4976965;28;20069;-66
2022/06/24 06:39:00;;;;;;;7.43;3.95;;;;;;;27.44;51.09;100449.06;4959330;28;20031;-66
2022/06/24 06:41:25;;;;;;;5.40;3.13;;;;;;;27.50;51.26;100448.09;4975383;28;20030;-66
2022/06/24 06:43:50;;;;;;;5.95;2.95;;;;;;;27.56;50.94;100445.16;4976453;28;20082;-66
2022/06/24 06:46:16;;;;;;;7.07;5.13;;;;;;;27.63;50.72;100447.75;4988400;28;20077;-65
2022/06/24 06:48:41;;;;;;;6.45;3.80;;;;;;;27.72;50.33;100457.28;4994469;28;20480;-65
2022/06/24 06:51:07;;;;;;;4.45;3.05;;;;;;;27.78;50.22;100447.97;4994648;28;20030;-66
2022/06/24 06:53:32;;;;;;;7.43;3.38;;;;;;;27.86;49.95;100446.75;4978671;28;20054;-66
2022/06/24 06:55:57;;;;;;;9.63;4.22;;;;;;;27.93;50.28;100448.22;4994541;28;20014;-66
2022/06/24 06:58:23;;;;;;;5.28;3.42;;;;;;;28.03;50.14;100448.41;4978145;28;20471;-66
2022/06/24 07:00:49;;;;;;;6.05;4.00;;;;;;;28.08;50.20;100445.75;4970403;28;20490;-66
2022/06/24 07:03:14;;;;;;;4.97;4.20;;;;;;;28.17;49.99;100448.88;4975015;28;20030;-65
2022/06/24 07:05:42;;;;;;;7.53;3.72;;;;;;;28.27;50.20;100444.38;4976017;28;20035;-66
2022/06/24 07:08:08;;;;;;;3.95;3.53;;;;;;;28.35;49.94;100439.50;4974888;28;20038;-65
2022/06/24 07:10:34;;;;;;;5.15;3.63;;;;;;;28.41;49.28;100436.56;4974973;28;20084;-65
2022/06/24 07:12:59;;;;;;;6.20;3.85;;;;;;;28.44;49.13;100438.81;4974759;28;20125;-66
2022/06/24 07:15:24;;;;;;;5.50;3.58;;;;;;;28.44;49.32;100433.28;4991002;28;20105;-67
2022/06/24 07:17:50;;;;;;;6.10;3.88;;;;;;;28.48;49.55;100428.91;4975930;28;20600;-65
2022/06/24 07:20:15;;;;;;;5.78;3.40;;;;;;;28.48;49.28;100433.59;4958801;28;20077;-65
2022/06/24 07:22:41;;;;;;;5.45;2.88;;;;;;;28.51;49.57;100433.09;4975718;28;20049;-66
2022/06/24 07:25:06;;;;;;;6.60;4.20;;;;;;;28.49;49.60;100446.28;4974559;28;20038;-66
2022/06/24 07:27:32;;;;;;;8.55;3.30;;;;;;;28.55;48.98;100446.13;4974543;28;20031;-66
2022/06/24 07:29:57;;;;;;;9.50;2.75;;;;;;;28.59;49.53;100446.41;4975718;28;20053;-66
2022/06/24 07:32:23;;;;;;;6.13;3.08;;;;;;;28.63;48.80;100442.94;4974482;28;20027;-66
2022/06/24 07:34:48;;;;;;;5.03;2.65;;;;;;;28.70;48.96;100453.78;4975493;28;20023;-66
2022/06/24 07:37:13;;;;;;;6.43;2.85;;;;;;;28.78;48.77;100453.31;4975290;28;20384;-65
2022/06/24 07:39:39;;;;;;;3.88;2.92;;;;;;;28.83;48.29;100442.34;4958179;28;20489;-65
2022/06/24 07:42:05;;;;;;;5.65;2.58;;;;;;;28.91;48.50;100439.13;4958114;28;20388;-65
2022/06/24 07:44:30;;;;;;;7.97;3.20;;;;;;;29.01;48.84;100436.47;4974147;28;20084;-65
2022/06/24 07:46:57;;;;;;;4.82;2.60;;;;;;;29.08;48.21;100442.63;4974221;28;20030;-66
2022/06/24 07:49:22;;;;;;;4.22;2.80;;;;;;;29.20;48.08;100437.75;4974111;28;20484;-65
2022/06/24 07:51:48;;;;;;;4.28;2.70;;;;;;;29.35;47.77;100435.19;4957389;28;20112;-66
2022/06/24 07:54:13;;;;;;;4.10;2.70;;;;;;;29.50;47.99;100431.75;4952503;28;20038;-65
2022/06/24 07:56:57;;;;;;;9.93;3.03;;;;;;;29.70;47.67;100447.66;4975257;28;20027;-65
2022/06/24 07:59:27;;;;;;;9.50;4.05;;;;;;;30.14;47.12;100438.06;4974083;28;20030;-65
2022/06/24 08:01:54;;;;;;;5.72;3.45;;;;;;;30.36;46.91;100435.13;4978479;28;20034;-65
2022/06/24 08:04:20;;;;;;;5.13;2.90;;;;;;;30.42;46.70;100434.91;4993321;28;20372;-67
2022/06/24 08:06:46;;;;;;;3.50;2.75;;;;;;;30.33;47.21;100436.50;4989337;28;20042;-65
2022/06/24 08:09:16;;;;;;;3.67;3.30;;;;;;;30.29;47.01;100445.59;4977077;28;20502;-65
2022/06/24 08:11:41;;;;;;;3.80;3.28;;;;;;;30.26;46.79;100448.91;4976561;28;20149;-66
2022/06/24 08:14:07;;;;;;;9.95;3.35;;;;;;;30.26;47.55;100446.97;4994411;28;20030;-65
2022/06/24 08:16:32;;;;;;;3.30;2.90;;;;;;;30.37;46.57;100451.50;4993412;28;20030;-66
2022/06/24 08:18:58;;;;;;;7.75;3.00;;;;;;;30.51;46.73;100447.09;4976865;28;20022;-66
2022/06/24 08:21:23;;;;;;;4.68;2.60;;;;;;;30.54;46.45;100448.53;4992923;28;20049;-65
2022/06/24 08:23:48;;;;;;;5.20;3.08;;;;;;;30.51;47.05;100444.34;4976754;28;20046;-65
2022/06/24 08:26:15;;;;;;;10.77;4.38;;;;;;;30.50;46.50;100441.84;4992908;28;20476;-66
2022/06/24 08:28:40;;;;;;;5.20;2.85;;;;;;;30.52;46.32;100440.47;4992938;28;20449;-66
2022/06/24 08:31:06;;;;;;;8.70;3.33;;;;;;;30.75;46.08;100438.38;4992865;28;20113;-65
2022/06/24 08:33:31;;;;;;;4.63;3.03;;;;;;;31.32;45.57;100439.09;4992939;28;20467;-65
2022/06/24 08:35:56;;;;;;;3.90;2.80;;;;;;;31.87;44.32;100434.69;4976687;28;20414;-65
2022/06/24 08:38:22;;;;;;;4.00;3.20;;;;;;;31.77;44.88;100438.28;4963400;28;20027;-66
2022/06/24 08:40:49;;;;;;;8.02;3.25;;;;;;;31.78;44.53;100441.88;4973395;28;20026;-66
2022/06/24 08:43:15;;;;;;;5.70;2.83;;;;;;;31.90;44.61;100439.66;4973345;28;20435;-66
2022/06/24 08:45:41;;;;;;;6.10;2.92;;;;;;;32.10;44.68;100437.75;4973179;28;20062;-66
2022/06/24 08:48:10;;;;;;;8.35;3.47;;;;;;;32.33;43.93;100443.78;4973320;28;20105;-66
2022/06/24 08:50:36;;;;;;;6.10;2.45;;;;;;;32.55;43.75;100439.53;4973386;28;20070;-66
2022/06/24 08:53:09;;;;;;;4.18;2.63;;;;;;;32.69;43.35;100437.81;4973037;28;20025;-66
2022/06/24 08:55:36;;;;;;;4.10;3.25;;;;;;;32.83;43.17;100447.19;4973155;28;20086;-66
2022/06/24 08:58:12;;;;;;;5.28;2.35;;;;;;;32.98;42.28;100445.44;4974447;28;20015;-65
2022/06/24 09:00:39;;;;;;;4.05;2.55;;;;;;;33.07;43.13;100438.22;4957156;28;20027;-66
2022/06/24 09:03:05;;;;;;;2.47;2.28;;;;;;;33.16;41.79;100437.34;4973063;28;20062;-66
2022/06/24 09:05:31;;;;;;;3.10;2.33;;;;;;;33.12;41.49;100424.28;4972844;28;20504;-66
2022/06/24 09:08:07;;;;;;;3.60;2.20;;;;;;;33.80;40.62;100428.78;4956931;28;20033;-66
2022/06/24 09:10:34;;;;;;;2.55;2.13;;;;;;;34.36;40.14;100423.50;4957296;28;20034;-66
2022/06/24 09:12:59;;;;;;;3.50;1.88;;;;;;;34.80;40.04;100416.84;4957205;28;20063;-66
2022/06/24 09:15:25;;;;;;;3.40;1.70;;;;;;;34.71;40.01;100419.47;4973063;28;20065;-66
2022/06/24 09:17:50;;;;;;;9.57;2.10;;;;;;;35.15;39.85;100407.19;4974315;28;20480;-67
2022/06/24 09:20:21;;;;;;;5.05;2.45;;;;;;;35.84;38.42;100412.72;4973016;28;20089;-66
2022/06/24 09:22:48;;;;;;;3.75;2.08;;;;;;;36.27;38.02;100406.91;4974112;28;20015;-65
2022/06/24 09:25:13;;;;;;;2.97;1.85;;;;;;;36.59;37.84;100410.44;4976712;28;20026;-66
2022/06/24 09:27:44;;;;;;;3.63;2.15;;;;;;;36.44;37.66;100404.31;4976866;28;20035;-66
2022/06/24 09:30:15;;;;;;;5.37;1.80;;;;;;;36.77;37.71;100403.06;4976753;28;20022;-66
2022/06/24 09:32:54;;;;;;;5.15;2.03;;;;;;;37.18;36.52;100406.63;4976667;28;20030;-66
2022/06/24 09:35:24;;;;;;;3.00;1.88;;;;;;;37.19;36.82;100408.25;4960298;28;20054;-67
2022/06/24 09:37:50;;;;;;;4.05;2.00;;;;;;;37.58;36.57;100410.38;4986492;28;20034;-67
2022/06/24 09:40:34;;;;;;;2.25;1.88;;;;;;;37.91;35.59;100407.34;4976768;28;20449;-66
2022/06/24 09:43:01;;;;;;;3.55;2.03;;;;;;;37.36;36.36;100403.97;4981369;28;20022;-66
2022/06/24 09:45:46;;;;;;;2.00;1.90;;;;;;;36.78;36.32;100401.94;4979628;28;20026;-66
2022/06/24 09:48:32;;;;;;;3.90;2.03;;;;;;;36.35;36.82;100406.19;4990149;28;20034;-66
2022/06/24 09:51:02;;;;;;;5.47;2.75;;;;;;;36.93;36.24;100418.34;4977091;28;20118;-66
2022/06/24 09:53:32;;;;;;;4.88;2.70;;;;;;;36.44;36.56;100413.50;4976419;28;20475;-66
2022/06/24 09:55:57;;;;;;;9.00;2.03;;;;;;;36.33;36.81;100406.47;4976652;28;20033;-67
2022/06/24 09:58:22;;;;;;;3.20;1.92;;;;;;;36.15;36.38;100411.03;4959944;28;20113;-66
2022/06/24 10:00:49;;;;;;;5.30;2.25;;;;;;;36.36;35.65;100432.94;4977403;28;20026;-67
2022/06/24 10:03:15;;;;;;;3.28;1.95;;;;;;;36.78;35.38;100430.69;4976149;28;20022;-66
2022/06/24 10:05:44;;;;;;;2.97;1.52;;;;;;;36.54;35.88;100429.28;4959580;28;20169;-67
2022/06/24 10:08:15;;;;;;;3.10;2.20;;;;;;;35.97;35.98;100437.00;4976111;28;20403;-67
2022/06/24 10:10:47;;;;;;;3.90;1.67;;;;;;;35.53;36.16;100442.22;4959802;28;20022;-67
2022/06/24 10:13:19;;;;;;;3.90;1.75;;;;;;;35.18;37.11;100435.25;4959772;28;20030;-67
2022/06/24 10:15:45;;;;;;;3.78;2.47;;;;;;;35.98;36.06;100440.63;4959749;28;20023;-66
2022/06/24 10:18:11;;;;;;;4.90;2.05;;;;;;;37.42;33.90;100441.81;4975891;28;20046;-66
2022/06/24 10:20:42;;;;;;;6.57;1.88;;;;;;;38.65;32.81;100434.34;4967483;28;20080;-67
2022/06/24 10:23:07;;;;;;;2.38;1.83;;;;;;;38.77;32.41;100437.38;4995253;28;20022;-66
2022/06/24 10:25:48;;;;;;;1.40;1.25;;;;;;;38.27;32.87;100439.63;4978699;28;20041;-66
2022/06/24 10:28:13;;;;;;;1.33;1.15;;;;;;;37.54;33.67;100444.91;4996275;28;20042;-66
2022/06/24 10:30:39;;;;;;;1.30;1.20;;;;;;;36.99;34.40;100453.44;4995115;28;20030;-66
2022/06/24 10:33:17;;;;;;;2.60;1.35;;;;;;;36.59;34.27;100443.13;4994932;28;20033;-68
2022/06/24 10:36:03;;;;;;;2.03;1.88;;;;;;;37.31;33.61;100441.22;4995910;28;20022;-67
2022/06/24 10:38:39;;;;;;;3.72;1.40;;;;;;;36.73;34.04;100435.56;4994844;28;20579;-67
2022/06/24 10:41:07;;;;;;;2.50;1.38;;;;;;;36.34;34.57;100440.81;4994877;28;20483;-67
2022/06/24 10:43:41;;;;;;;1.92;1.40;;;;;;;35.97;34.99;100441.75;4994838;28;20483;-68
2022/06/24 10:46:12;;;;;;;3.58;1.30;;;;;;;35.63;35.04;100437.34;4978548;28;20145;-67
2022/06/24 10:48:43;;;;;;;2.80;1.30;;;;;;;35.30;34.58;100432.00;4995965;28;20084;-67
2022/06/24 10:51:22;;;;;;;1.67;1.10;;;;;;;34.97;34.68;100440.25;4995963;28;20034;-67
2022/06/24 10:54:02;;;;;;;4.38;1.40;;;;;;;34.68;35.71;100436.75;4979029;28;20469;-67
2022/06/24 10:56:48;;;;;;;1.60;1.38;;;;;;;34.56;35.75;100433.56;4976323;28;20427;-67
2022/06/24 10:59:17;;;;;;;1.50;1.25;;;;;;;34.64;35.80;100446.84;4974988;28;20027;-67
2022/06/24 11:01:45;;;;;;;1.40;1.20;;;;;;;34.76;35.63;100438.88;4975080;28;20105;-67
2022/06/24 11:04:15;;;;;;;1.27;1.17;;;;;;;34.94;35.05;100435.28;4976125;28;20026;-66
2022/06/24 11:07:09;;;;;;;1.55;1.45;;;;;;;35.04;35.00;100435.13;4958605;28;20467;-67
2022/06/24 11:09:35;;;;;;;2.08;1.13;;;;;;;35.02;35.33;100437.41;4975021;28;20485;-67
2022/06/24 11:12:05;;;;;;;3.35;1.42;;;;;;;35.08;34.79;100425.09;4974921;28;20031;-67
2022/06/24 11:14:30;;;;;;;1.33;1.23;;;;;;;35.31;34.72;100411.38;4975055;28;20142;-67
2022/06/24 11:16:56;;;;;;;1.90;1.02;;;;;;;35.37;34.99;100412.94;4976026;28;20034;-67
2022/06/24 11:19:21;;;;;;;2.13;0.90;;;;;;;35.27;35.60;100415.88;4974661;28;20033;-67
2022/06/24 11:21:50;;;;;;;1.42;1.30;;;;;;;35.14;35.50;100413.88;4974704;28;20026;-67
2022/06/24 11:24:19;;;;;;;1.17;1.08;;;;;;;35.14;34.70;100400.78;4975743;28;20109;-66
2022/06/24 11:27:04;;;;;;;2.40;1.23;;;;;;;35.24;35.21;100396.97;4974538;28;20057;-67
2022/06/24 11:29:50;;;;;;;1.27;0.93;;;;;;;35.28;34.70;100395.25;4975714;28;20120;-67
2022/06/24 11:32:16;;;;;;;1.75;1.23;;;;;;;35.31;35.17;100389.09;4974341;28;20025;-66
2022/06/24 11:34:43;;;;;;;1.35;1.00;;;;;;;36.20;34.13;100388.63;4974747;28;20030;-67
2022/06/24 11:37:08;;;;;;;2.13;1.20;;;;;;;36.92;32.99;100397.13;4971767;28;20444;-67